createdAt,value
2018-11-06T00:01:53.019Z,84.07
2018-11-06T00:04:29.638Z,83.93
2018-11-06T00:07:01.257Z,83.76
2018-11-06T00:09:32.855Z,84.16
2018-11-06T00:12:04.626Z,84.20
2018-11-06T00:14:37.072Z,84.74
2018-11-06T00:17:08.692Z,84.13
2018-11-06T00:19:40.414Z,84.48
2018-11-06T00:22:12.404Z,84.35
2018-11-06T00:24:44.178Z,84.61
2018-11-06T00:27:17.895Z,84.68
2018-11-06T00:29:49.745Z,84.64
2018-11-06T00:32:21.498Z,84.26
2018-11-06T00:34:53.304Z,84.52
2018-11-06T00:37:24.907Z,84.29
2018-11-06T00:39:56.316Z,84.42
2018-11-06T00:42:27.925Z,84.27
2018-11-06T00:44:59.663Z,83.96
2018-11-06T00:47:31.230Z,84.18
2018-11-06T00:50:03.034Z,84.22
2018-11-06T00:52:35.823Z,84.10
2018-11-06T00:55:08.480Z,84.44
2018-11-06T00:57:42.737Z,84.54
2018-11-06T01:00:17.228Z,84.57
2018-11-06T01:02:49.251Z,84.56
2018-11-06T01:05:20.984Z,84.41
2018-11-06T01:07:52.777Z,84.19
2018-11-06T01:10:24.376Z,84.15
2018-11-06T01:12:56.470Z,84.57
2018-11-06T01:15:28.180Z,84.73
2018-11-06T01:17:59.730Z,84.63
2018-11-06T01:20:31.434Z,84.50
2018-11-06T01:23:02.839Z,84.45
2018-11-06T01:25:34.463Z,84.48
2018-11-06T01:28:06.594Z,84.23
2018-11-06T01:30:38.130Z,84.37
2018-11-06T01:33:09.646Z,84.24
2018-11-06T01:35:41.781Z,84.39
2018-11-06T01:38:13.601Z,84.56
2018-11-06T01:40:45.223Z,84.72
2018-11-06T01:43:16.681Z,84.46
2018-11-06T01:45:48.108Z,84.35
2018-11-06T01:48:19.787Z,84.72
2018-11-06T01:50:51.334Z,84.44
2018-11-06T01:53:23.111Z,84.62
2018-11-06T01:55:55.302Z,83.95
2018-11-06T01:58:26.851Z,84.11
2018-11-06T02:00:58.871Z,84.15
2018-11-06T02:03:30.518Z,83.77
2018-11-06T02:06:02.149Z,83.63
2018-11-06T02:08:34.351Z,83.61
2018-11-06T02:11:05.726Z,84.00
2018-11-06T02:13:37.305Z,83.56
2018-11-06T02:16:10.019Z,83.65
2018-11-06T02:18:41.618Z,83.70
2018-11-06T02:21:13.854Z,83.39
2018-11-06T02:23:45.767Z,83.43
2018-11-06T02:26:17.104Z,83.59
2018-11-06T02:28:49.379Z,83.44
2018-11-06T02:31:21.309Z,83.55
2018-11-06T02:33:54.086Z,83.67
2018-11-06T02:36:25.730Z,83.65
2018-11-06T02:38:57.489Z,83.52
2018-11-06T02:41:29.343Z,83.35
2018-11-06T02:44:01.379Z,83.46
2018-11-06T02:46:33.657Z,83.47
2018-11-06T02:49:05.238Z,83.15
2018-11-06T02:51:37.072Z,83.53
2018-11-06T02:54:08.659Z,83.28
2018-11-06T02:56:40.263Z,83.05
2018-11-06T02:59:11.980Z,83.40
2018-11-06T03:01:44.935Z,83.36
2018-11-06T03:04:16.353Z,83.53
2018-11-06T03:06:48.412Z,83.47
2018-11-06T03:09:20.320Z,83.87
2018-11-06T03:11:51.754Z,84.00
2018-11-06T03:14:23.542Z,84.32
2018-11-06T03:16:55.514Z,84.79
2018-11-06T03:19:27.151Z,84.45
2018-11-06T03:21:59.246Z,84.58
2018-11-06T03:24:31.292Z,85.08
2018-11-06T03:27:02.585Z,84.80
2018-11-06T03:29:34.477Z,85.06
2018-11-06T03:32:05.879Z,85.18
2018-11-06T03:34:37.318Z,85.33
2018-11-06T03:37:09.351Z,84.93
2018-11-06T03:39:40.635Z,85.19
2018-11-06T03:42:12.243Z,85.33
2018-11-06T03:44:43.875Z,85.38
2018-11-06T03:47:15.310Z,85.41
2018-11-06T03:49:46.885Z,85.08
2018-11-06T03:52:18.448Z,84.85
2018-11-06T03:54:49.826Z,84.73
2018-11-06T03:57:22.257Z,84.51
2018-11-06T03:59:53.553Z,84.42
2018-11-06T04:02:25.981Z,84.44
2018-11-06T04:04:58.001Z,84.47
2018-11-06T04:07:31.101Z,84.22
2018-11-06T04:10:03.237Z,83.82
2018-11-06T04:12:34.640Z,83.96
2018-11-06T04:15:06.450Z,83.84
2018-11-06T04:17:38.018Z,84.06
2018-11-06T04:20:10.182Z,84.19
2018-11-06T04:22:42.276Z,83.87
2018-11-06T04:25:13.589Z,83.91
2018-11-06T04:27:45.311Z,83.61
2018-11-06T04:30:17.053Z,83.67
2018-11-06T04:32:48.801Z,83.48
2018-11-06T04:35:20.802Z,83.46
2018-11-06T04:37:52.692Z,83.61
2018-11-06T04:40:24.439Z,83.90
2018-11-06T04:42:56.141Z,83.53
2018-11-06T04:45:28.070Z,83.32
2018-11-06T04:48:00.355Z,83.36
2018-11-06T04:50:32.861Z,83.27
2018-11-06T04:53:04.582Z,83.26
2018-11-06T04:55:36.262Z,83.56
2018-11-06T04:58:07.623Z,83.26
2018-11-06T05:00:39.738Z,82.45
2018-11-06T05:03:11.654Z,83.28
2018-11-06T05:05:43.159Z,83.35
2018-11-06T05:08:14.488Z,83.35
2018-11-06T05:10:47.574Z,83.60
2018-11-06T05:13:19.007Z,83.83
2018-11-06T05:15:50.531Z,83.40
2018-11-06T05:18:22.161Z,84.01
2018-11-06T05:20:53.562Z,83.95
2018-11-06T05:23:25.042Z,84.16
2018-11-06T05:25:56.767Z,84.29
2018-11-06T05:28:28.984Z,84.63
2018-11-06T05:35:47.889Z,84.80
2018-11-06T05:38:19.247Z,84.94
2018-11-06T05:41:07.841Z,84.56
2018-11-06T05:43:39.744Z,84.79
2018-11-06T05:46:11.299Z,85.17
2018-11-06T05:48:42.789Z,84.76
2018-11-06T05:51:14.366Z,84.70
2018-11-06T05:53:46.242Z,84.82
2018-11-06T05:56:17.863Z,84.92
2018-11-06T05:58:49.050Z,84.86
2018-11-06T06:01:20.634Z,85.13
2018-11-06T06:03:52.216Z,85.12
2018-11-06T06:06:23.202Z,84.77
2018-11-06T06:08:55.430Z,84.71
2018-11-06T06:11:26.709Z,84.82
2018-11-06T06:13:58.325Z,84.58
2018-11-06T06:16:30.471Z,84.77
2018-11-06T06:19:02.318Z,84.33
2018-11-06T06:21:33.665Z,84.51
2018-11-06T06:24:05.133Z,84.12
2018-11-06T06:26:36.592Z,84.03
2018-11-06T06:29:09.323Z,84.42
2018-11-06T06:31:40.971Z,84.25
2018-11-06T06:34:12.433Z,84.52
2018-11-06T06:36:44.398Z,84.56
2018-11-06T06:39:16.657Z,84.49
2018-11-06T06:41:47.661Z,84.11
2018-11-06T06:44:19.372Z,83.96
2018-11-06T06:46:50.768Z,83.69
2018-11-06T06:49:22.663Z,83.59
2018-11-06T06:51:53.730Z,83.80
2018-11-06T06:54:24.989Z,83.65
2018-11-06T06:56:57.010Z,83.45
2018-11-06T06:59:28.960Z,83.08
2018-11-06T07:02:00.538Z,83.19
2018-11-06T07:04:31.712Z,82.95
2018-11-06T07:07:02.834Z,83.06
2018-11-06T07:09:34.671Z,82.72
2018-11-06T07:12:08.360Z,82.70
2018-11-06T07:14:39.692Z,82.65
2018-11-06T07:17:11.236Z,82.57
2018-11-06T07:19:42.926Z,82.77
2018-11-06T07:22:15.781Z,82.98
2018-11-06T07:24:47.868Z,82.38
2018-11-06T07:27:20.686Z,82.37
2018-11-06T07:29:52.324Z,82.57
2018-11-06T07:32:24.224Z,82.57
2018-11-06T07:34:56.751Z,82.16
2018-11-06T07:37:29.931Z,82.23
2018-11-06T07:40:02.352Z,81.76
2018-11-06T07:42:34.072Z,82.01
2018-11-06T07:45:06.609Z,82.12
2018-11-06T07:47:38.902Z,81.93
2018-11-06T07:50:11.773Z,81.69
2018-11-06T07:52:43.710Z,81.86
2018-11-06T07:55:17.508Z,81.13
2018-11-06T07:57:48.839Z,80.59
2018-11-06T08:00:25.752Z,80.29
2018-11-06T08:02:57.927Z,79.89
2018-11-06T08:05:33.149Z,80.07
2018-11-06T08:08:09.140Z,79.96
2018-11-06T08:10:41.022Z,79.56
2018-11-06T08:13:12.494Z,79.41
2018-11-06T08:15:43.619Z,79.21
2018-11-06T08:18:15.185Z,79.14
2018-11-06T08:20:46.790Z,78.91
2018-11-06T08:23:18.656Z,78.08
2018-11-06T08:25:51.206Z,77.69
2018-11-06T08:28:23.126Z,77.17
2018-11-06T08:30:54.753Z,76.69
2018-11-06T08:33:27.608Z,76.59
2018-11-06T08:36:01.088Z,76.10
2018-11-06T08:38:32.686Z,76.06
2018-11-06T08:41:04.463Z,75.96
2018-11-06T08:43:36.128Z,75.53
2018-11-06T08:46:08.074Z,75.18
2018-11-06T08:48:39.374Z,74.97
2018-11-06T08:51:12.000Z,74.56
2018-11-06T08:53:43.899Z,74.23
2018-11-06T08:56:16.602Z,73.94
2018-11-06T08:58:48.077Z,73.81
2018-11-06T09:01:19.228Z,73.81
2018-11-06T09:03:50.341Z,73.56
2018-11-06T09:06:22.845Z,73.08
2018-11-06T09:08:54.502Z,73.85
2018-11-06T09:11:26.111Z,73.86
2018-11-06T09:13:58.431Z,73.53
2018-11-06T09:16:30.077Z,73.50
2018-11-06T09:19:02.761Z,73.66
2018-11-06T09:21:36.012Z,73.72
2018-11-06T09:24:08.073Z,73.66
2018-11-06T09:26:39.370Z,73.82
2018-11-06T09:29:11.117Z,73.51
2018-11-06T09:31:42.658Z,72.75
2018-11-06T09:34:14.578Z,73.34
2018-11-06T09:36:46.788Z,73.77
2018-11-06T09:39:18.773Z,73.25
2018-11-06T09:41:49.994Z,73.58
2018-11-06T09:44:23.186Z,73.13
2018-11-06T09:46:54.675Z,72.94
2018-11-06T09:49:26.386Z,72.21
2018-11-06T09:51:58.569Z,72.55
2018-11-06T09:54:30.215Z,72.13
2018-11-06T09:57:01.152Z,71.80
2018-11-06T09:59:33.196Z,72.17
2018-11-06T10:02:05.128Z,72.29
2018-11-06T10:04:36.753Z,72.33
2018-11-06T10:07:10.313Z,72.08
2018-11-06T10:09:41.399Z,72.15
2018-11-06T10:12:13.079Z,72.54
2018-11-06T10:14:45.656Z,72.11
2018-11-06T10:17:17.929Z,72.80
2018-11-06T10:19:49.756Z,72.49
2018-11-06T10:22:22.294Z,71.98
2018-11-06T10:24:54.346Z,72.45
2018-11-06T10:27:25.903Z,72.43
2018-11-06T10:29:57.551Z,72.76
2018-11-06T10:32:29.714Z,72.32
2018-11-06T10:35:01.849Z,72.19
2018-11-06T10:37:33.799Z,72.10
2018-11-06T10:40:06.269Z,71.35
2018-11-06T10:42:37.770Z,71.88
2018-11-06T10:45:09.722Z,71.95
2018-11-06T10:47:41.677Z,71.75
2018-11-06T10:50:14.548Z,71.43
2018-11-06T10:52:46.661Z,70.86
2018-11-06T10:55:18.049Z,71.38
2018-11-06T10:57:49.658Z,71.16
2018-11-06T11:00:26.159Z,70.53
2018-11-06T11:03:06.367Z,70.85
2018-11-06T11:05:41.250Z,70.38
2018-11-06T11:08:15.872Z,70.29
2018-11-06T11:10:48.107Z,70.33
2018-11-06T11:13:20.933Z,70.23
2018-11-06T11:15:53.556Z,69.74
2018-11-06T11:18:26.164Z,69.84
2018-11-06T11:20:58.625Z,69.41
2018-11-06T11:23:31.641Z,69.41
2018-11-06T11:26:03.800Z,69.86
2018-11-06T11:28:36.203Z,68.88
2018-11-06T11:31:08.903Z,68.85
2018-11-06T11:33:40.343Z,68.35
2018-11-06T11:36:11.898Z,68.32
2018-11-06T11:38:43.655Z,68.46
2018-11-06T11:41:16.354Z,68.01
2018-11-06T11:43:48.088Z,67.65
2018-11-06T11:46:19.193Z,67.69
2018-11-06T11:48:51.234Z,67.63
2018-11-06T11:51:23.268Z,67.58
2018-11-06T11:53:55.020Z,67.45
2018-11-06T11:56:27.029Z,67.35
2018-11-06T11:58:59.083Z,67.30
2018-11-06T12:01:31.773Z,67.48
2018-11-06T12:04:04.257Z,67.67
2018-11-06T12:06:37.216Z,67.83
2018-11-06T12:09:11.568Z,67.78
2018-11-06T12:11:43.089Z,67.72
2018-11-06T12:14:14.837Z,67.03
2018-11-06T12:16:45.919Z,67.37
2018-11-06T12:19:18.032Z,67.09
2018-11-06T12:21:51.095Z,67.11
2018-11-06T12:24:23.982Z,66.60
2018-11-06T12:26:56.026Z,66.81
2018-11-06T12:29:28.107Z,66.98
2018-11-06T12:32:00.682Z,66.91
2018-11-06T12:34:33.430Z,66.42
2018-11-06T12:37:05.637Z,66.36
2018-11-06T12:39:37.839Z,66.76
2018-11-06T12:42:10.721Z,66.78
2018-11-06T12:44:43.577Z,66.60
2018-11-06T12:47:15.078Z,66.74
2018-11-06T12:49:46.674Z,66.00
2018-11-06T12:52:18.260Z,66.71
2018-11-06T12:54:49.523Z,66.84
2018-11-06T12:57:21.951Z,67.05
2018-11-06T12:59:53.644Z,66.74
2018-11-06T13:02:25.622Z,67.62
2018-11-06T13:04:58.594Z,67.13
2018-11-06T13:07:30.523Z,67.21
2018-11-06T13:10:04.996Z,66.72
2018-11-06T13:12:36.624Z,66.84
2018-11-06T13:15:08.917Z,66.78
2018-11-06T13:17:40.845Z,66.98
2018-11-06T13:20:15.066Z,67.35
2018-11-06T13:22:47.385Z,67.17
2018-11-06T13:25:20.221Z,67.79
2018-11-06T13:27:51.749Z,67.27
2018-11-06T13:30:23.577Z,68.08
2018-11-06T13:32:54.815Z,67.86
2018-11-06T13:35:27.000Z,68.27
2018-11-06T13:37:58.818Z,68.71
2018-11-06T13:40:32.199Z,68.19
2018-11-06T13:43:10.330Z,67.90
2018-11-06T13:45:41.765Z,67.67
2018-11-06T13:48:14.165Z,68.40
2018-11-06T13:50:46.732Z,68.50
2018-11-06T13:53:18.674Z,67.91
2018-11-06T13:55:51.420Z,68.97
2018-11-06T13:58:27.849Z,69.67
2018-11-06T14:01:02.469Z,70.21
2018-11-06T14:03:34.307Z,70.13
2018-11-06T14:06:05.754Z,71.29
2018-11-06T14:08:41.829Z,71.65
2018-11-06T14:11:13.142Z,71.48
2018-11-06T14:13:44.846Z,72.15
2018-11-06T14:16:17.428Z,72.77
2018-11-06T14:18:51.148Z,72.57
2018-11-06T14:21:22.715Z,73.43
2018-11-06T14:23:54.741Z,73.47
2018-11-06T14:26:26.234Z,73.87
2018-11-06T14:28:57.513Z,73.96
2018-11-06T14:31:28.656Z,74.35
2018-11-06T14:34:00.706Z,74.08
2018-11-06T14:36:32.187Z,74.67
2018-11-06T14:39:03.394Z,75.49
2018-11-06T14:41:35.699Z,75.16
2018-11-06T14:44:07.534Z,75.32
2018-11-06T14:46:39.963Z,75.24
2018-11-06T14:49:11.761Z,76.08
2018-11-06T14:51:43.373Z,76.94
2018-11-06T14:54:15.342Z,77.07
2018-11-06T14:56:47.305Z,77.67
2018-11-06T14:59:18.932Z,77.59
2018-11-06T15:01:50.521Z,78.59
2018-11-06T15:04:24.413Z,78.65
2018-11-06T15:06:56.239Z,78.58
2018-11-06T15:09:27.789Z,78.82
2018-11-06T15:12:01.424Z,79.19
2018-11-06T15:14:33.316Z,79.84
2018-11-06T15:17:04.998Z,80.50
2018-11-06T15:19:37.113Z,80.78
2018-11-06T15:22:12.794Z,80.92
2018-11-06T15:24:47.215Z,80.45
2018-11-06T15:27:18.775Z,80.42
2018-11-06T15:29:50.348Z,80.22
2018-11-06T15:32:22.048Z,80.61
2018-11-06T15:34:57.016Z,80.56
2018-11-06T15:37:29.396Z,80.16
2018-11-06T15:40:07.919Z,80.47
2018-11-06T15:42:41.126Z,80.31
2018-11-06T15:45:15.975Z,80.31
2018-11-06T15:47:50.610Z,80.49
2018-11-06T15:50:23.954Z,80.26
2018-11-06T15:52:56.276Z,79.66
2018-11-06T15:55:28.714Z,80.00
2018-11-06T15:58:01.380Z,80.16
2018-11-06T16:00:33.950Z,79.84
2018-11-06T16:03:05.472Z,80.52
2018-11-06T16:05:37.475Z,79.74
2018-11-06T16:08:09.765Z,79.77
2018-11-06T16:10:41.265Z,80.03
2018-11-06T16:13:12.746Z,80.17
2018-11-06T16:15:44.108Z,80.27
2018-11-06T16:18:17.838Z,80.69
2018-11-06T16:20:49.448Z,79.90
2018-11-06T16:23:20.704Z,80.63
2018-11-06T16:25:55.644Z,80.88
2018-11-06T16:28:28.977Z,80.62
2018-11-06T16:31:01.202Z,80.68
2018-11-06T16:33:33.488Z,80.83
2018-11-06T16:36:05.127Z,80.52
2018-11-06T16:38:36.691Z,80.66
2018-11-06T16:41:09.290Z,80.26
2018-11-06T16:43:41.214Z,80.69
2018-11-06T16:46:13.457Z,80.85
2018-11-06T16:48:45.788Z,80.69
2018-11-06T16:51:16.974Z,80.58
2018-11-06T16:53:49.168Z,80.67
2018-11-06T16:56:21.618Z,80.69
2018-11-06T16:58:53.324Z,80.48
2018-11-06T17:01:24.956Z,81.40
2018-11-06T17:03:57.424Z,81.29
2018-11-06T17:06:34.425Z,81.41
2018-11-06T17:09:08.169Z,81.66
2018-11-06T17:11:41.642Z,81.76
2018-11-06T17:14:13.230Z,81.69
2018-11-06T17:16:50.025Z,81.52
2018-11-06T17:19:22.822Z,81.89
2018-11-06T17:21:58.281Z,81.47
2018-11-06T17:24:29.937Z,81.28
2018-11-06T17:27:02.280Z,81.72
2018-11-06T17:29:34.091Z,81.32
2018-11-06T17:32:05.646Z,82.12
2018-11-06T17:34:36.762Z,81.74
2018-11-06T17:37:09.291Z,81.75
2018-11-06T17:39:40.839Z,81.77
2018-11-06T17:42:12.285Z,81.84
2018-11-06T17:44:44.627Z,81.88
2018-11-06T17:47:17.464Z,81.97
2018-11-06T17:49:50.781Z,82.05
2018-11-06T17:52:23.896Z,82.15
2018-11-06T17:54:56.426Z,82.16
2018-11-06T17:57:27.495Z,82.11
2018-11-06T18:00:00.616Z,82.51
2018-11-06T18:02:32.674Z,82.23
2018-11-06T18:05:04.236Z,82.24
2018-11-06T18:07:38.077Z,82.68
2018-11-06T18:10:10.947Z,82.53
2018-11-06T18:12:42.265Z,82.01
2018-11-06T18:15:18.271Z,82.21
2018-11-06T18:17:51.140Z,82.42
2018-11-06T18:20:22.568Z,82.17
2018-11-06T18:22:53.896Z,82.56
2018-11-06T18:25:25.739Z,81.86
2018-11-06T18:27:57.844Z,82.18
2018-11-06T18:30:30.968Z,82.06
2018-11-06T18:33:02.302Z,82.43
2018-11-06T18:35:33.445Z,82.22
2018-11-06T18:38:05.785Z,82.13
2018-11-06T18:40:39.920Z,82.01
2018-11-06T18:43:12.795Z,81.91
2018-11-06T18:45:44.583Z,81.70
2018-11-06T18:48:16.867Z,82.02
2018-11-06T18:50:48.367Z,81.86
2018-11-06T18:53:19.927Z,82.14
2018-11-06T18:55:51.095Z,81.80
2018-11-06T18:58:22.838Z,82.07
2018-11-06T19:00:54.142Z,81.98
2018-11-06T19:03:25.162Z,81.91
2018-11-06T19:05:56.796Z,81.94
2018-11-06T19:08:29.079Z,81.91
2018-11-06T19:11:01.722Z,81.96
2018-11-06T19:13:33.267Z,81.83
2018-11-06T19:16:06.669Z,82.10
2018-11-06T19:18:39.351Z,81.98
2018-11-06T19:21:10.653Z,81.75
2018-11-06T19:23:41.716Z,81.93
2018-11-06T19:26:16.638Z,81.85
2018-11-06T19:28:48.229Z,81.98
2018-11-06T19:31:20.128Z,82.03
2018-11-06T19:33:52.663Z,81.96
2018-11-06T19:36:28.133Z,81.99
2018-11-06T19:38:59.433Z,81.99
2018-11-06T19:41:30.759Z,82.14
2018-11-06T19:44:03.540Z,82.35
2018-11-06T19:46:35.104Z,82.35
2018-11-06T19:49:08.463Z,82.55
2018-11-06T19:51:39.535Z,82.50
2018-11-06T19:54:11.821Z,82.43
2018-11-06T19:56:42.980Z,82.64
2018-11-06T19:59:16.320Z,82.70
2018-11-06T20:01:47.906Z,82.52
2018-11-06T20:04:19.180Z,82.69
2018-11-06T20:06:51.340Z,82.69
2018-11-06T20:09:23.423Z,82.71
2018-11-06T20:11:56.393Z,82.74
2018-11-06T20:14:28.924Z,82.61
2018-11-06T20:17:00.119Z,82.63
2018-11-06T20:19:31.451Z,82.30
2018-11-06T20:22:02.943Z,82.61
2018-11-06T20:24:35.425Z,82.61
2018-11-06T20:27:08.258Z,82.64
2018-11-06T20:29:40.667Z,82.63
2018-11-06T20:32:11.888Z,82.47
2018-11-06T20:34:43.307Z,82.54
2018-11-06T20:37:15.715Z,82.61
2018-11-06T20:39:47.984Z,82.48
2018-11-06T20:42:20.841Z,82.65
2018-11-06T20:44:53.137Z,82.57
2018-11-06T20:47:24.545Z,82.49
2018-11-06T20:49:57.157Z,82.45
2018-11-06T20:52:29.802Z,82.53
2018-11-06T20:55:01.639Z,82.52
2018-11-06T20:57:33.785Z,82.52
2018-11-06T21:00:06.068Z,82.47
2018-11-06T21:02:37.552Z,82.29
2018-11-06T21:05:09.783Z,82.32
2018-11-06T21:07:41.528Z,82.39
2018-11-06T21:10:17.721Z,82.46
2018-11-06T21:12:49.881Z,82.48
2018-11-06T21:15:21.471Z,82.41
2018-11-06T21:17:53.399Z,82.70
2018-11-06T21:20:25.000Z,82.52
2018-11-06T21:22:56.327Z,82.78
2018-11-06T21:25:28.793Z,82.85
2018-11-06T21:28:01.723Z,82.78
2018-11-06T21:30:33.847Z,82.71
2018-11-06T21:33:06.007Z,82.60
2018-11-06T21:35:37.282Z,83.08
2018-11-06T21:38:09.693Z,83.25
2018-11-06T21:40:41.057Z,83.36
2018-11-06T21:43:12.073Z,83.11
2018-11-06T21:45:43.115Z,83.12
2018-11-06T21:48:15.152Z,83.20
2018-11-06T21:50:46.697Z,82.95
2018-11-06T21:53:17.884Z,83.21
2018-11-06T21:55:49.326Z,83.09
2018-11-06T21:58:20.939Z,83.01
2018-11-06T22:00:52.639Z,82.89
2018-11-06T22:03:24.481Z,83.03
2018-11-06T22:05:57.718Z,82.85
2018-11-06T22:08:28.774Z,83.15
2018-11-06T22:11:01.281Z,83.18
2018-11-06T22:13:32.710Z,83.35
2018-11-06T22:16:05.451Z,83.27
2018-11-06T22:18:37.188Z,83.25
2018-11-06T22:21:09.333Z,83.25
2018-11-06T22:23:40.643Z,83.26
2018-11-06T22:26:12.094Z,83.27
2018-11-06T22:28:43.328Z,83.36
2018-11-06T22:31:14.782Z,83.01
2018-11-06T22:33:46.112Z,83.34
2018-11-06T22:36:17.691Z,83.39
2018-11-06T22:38:49.377Z,83.65
2018-11-06T22:41:21.089Z,83.65
2018-11-06T22:43:52.929Z,83.40
2018-11-06T22:46:23.843Z,83.66
2018-11-06T22:48:55.729Z,83.50
2018-11-06T22:51:27.751Z,83.46
2018-11-06T22:53:59.595Z,83.36
2018-11-06T22:56:31.710Z,83.33
2018-11-06T22:59:03.445Z,83.28
2018-11-06T23:01:35.149Z,83.04
2018-11-06T23:04:06.906Z,83.23
2018-11-06T23:06:38.842Z,83.07
2018-11-06T23:09:11.886Z,83.06
2018-11-06T23:11:42.859Z,83.07
2018-11-06T23:14:14.626Z,83.25
2018-11-06T23:16:46.529Z,83.15
2018-11-06T23:19:18.178Z,83.27
2018-11-06T23:21:50.194Z,83.39
2018-11-06T23:24:21.160Z,83.06
2018-11-06T23:26:53.903Z,83.17
2018-11-06T23:29:25.598Z,83.09
2018-11-06T23:31:57.517Z,83.15
2018-11-06T23:34:31.072Z,83.33
2018-11-06T23:37:03.475Z,83.40
2018-11-06T23:39:35.453Z,83.18
2018-11-06T23:42:06.990Z,83.58
2018-11-06T23:44:39.002Z,83.29
2018-11-06T23:47:10.459Z,83.29
2018-11-06T23:49:41.743Z,83.68
2018-11-06T23:52:13.536Z,83.93
2018-11-06T23:54:45.196Z,83.92
2018-11-06T23:57:16.602Z,84.21
2018-11-06T23:59:47.994Z,84.61
